sensor_id;sensor_type;location;lat;lon;timestamp;temperature;humidity
14192;DHT22;7177;48.572;7.838;2022-08-25T00:00:46;20.70;99.90
14192;DHT22;7177;48.572;7.838;2022-08-25T00:03:13;20.80;99.90
14192;DHT22;7177;48.572;7.838;2022-08-25T00:05:39;20.80;99.90
14192;DHT22;7177;48.572;7.838;2022-08-25T00:08:06;20.90;99.90
14192;DHT22;7177;48.572;7.838;2022-08-25T00:10:36;20.90;99.90
14192;DHT22;7177;48.572;7.838;2022-08-25T00:13:03;20.90;99.90
14192;DHT22;7177;48.572;7.838;2022-08-25T00:15:29;20.80;99.90
14192;DHT22;7177;48.572;7.838;2022-08-25T00:17:59;20.60;99.90
14192;DHT22;7177;48.572;7.838;2022-08-25T00:20:26;20.50;99.90
14192;DHT22;7177;48.572;7.838;2022-08-25T00:22:52;20.50;99.90
14192;DHT22;7177;48.572;7.838;2022-08-25T00:25:18;20.50;99.90
14192;DHT22;7177;48.572;7.838;2022-08-25T00:27:44;20.40;99.90
14192;DHT22;7177;48.572;7.838;2022-08-25T00:30:10;20.50;99.90
14192;DHT22;7177;48.572;7.838;2022-08-25T00:32:39;20.50;99.90
14192;DHT22;7177;48.572;7.838;2022-08-25T00:35:05;20.40;99.90
14192;DHT22;7177;48.572;7.838;2022-08-25T00:37:31;20.40;99.90
14192;DHT22;7177;48.572;7.838;2022-08-25T00:39:56;20.40;99.90
14192;DHT22;7177;48.572;7.838;2022-08-25T00:42:23;20.40;99.90
14192;DHT22;7177;48.572;7.838;2022-08-25T00:44:49;20.40;99.90
14192;DHT22;7177;48.572;7.838;2022-08-25T00:47:14;20.40;99.90
14192;DHT22;7177;48.572;7.838;2022-08-25T00:49:55;20.40;99.90
14192;DHT22;7177;48.572;7.838;2022-08-25T00:52:37;20.30;99.90
14192;DHT22;7177;48.572;7.838;2022-08-25T00:55:25;20.20;99.90
14192;DHT22;7177;48.572;7.838;2022-08-25T00:58:05;20.30;99.90
14192;DHT22;7177;48.572;7.838;2022-08-25T01:00:37;20.30;99.90
14192;DHT22;7177;48.572;7.838;2022-08-25T01:03:04;20.30;99.90
14192;DHT22;7177;48.572;7.838;2022-08-25T01:05:30;20.30;99.90
14192;DHT22;7177;48.572;7.838;2022-08-25T01:07:58;20.20;99.90
14192;DHT22;7177;48.572;7.838;2022-08-25T01:10:28;20.10;99.90
14192;DHT22;7177;48.572;7.838;2022-08-25T01:12:59;20.00;99.90
14192;DHT22;7177;48.572;7.838;2022-08-25T01:15:26;19.90;99.90
14192;DHT22;7177;48.572;7.838;2022-08-25T01:17:54;19.80;99.90
14192;DHT22;7177;48.572;7.838;2022-08-25T01:20:23;19.80;99.90
14192;DHT22;7177;48.572;7.838;2022-08-25T01:22:50;19.80;99.90
14192;DHT22;7177;48.572;7.838;2022-08-25T01:25:35;19.60;99.90
14192;DHT22;7177;48.572;7.838;2022-08-25T01:28:05;19.60;99.90
14192;DHT22;7177;48.572;7.838;2022-08-25T01:30:31;19.60;99.90
14192;DHT22;7177;48.572;7.838;2022-08-25T01:32:57;19.50;99.90
14192;DHT22;7177;48.572;7.838;2022-08-25T01:35:22;19.50;99.90
14192;DHT22;7177;48.572;7.838;2022-08-25T01:37:49;19.60;99.90
14192;DHT22;7177;48.572;7.838;2022-08-25T01:40:14;19.60;99.90
14192;DHT22;7177;48.572;7.838;2022-08-25T01:42:57;19.60;99.90
14192;DHT22;7177;48.572;7.838;2022-08-25T01:45:26;19.60;99.90
14192;DHT22;7177;48.572;7.838;2022-08-25T01:47:52;19.60;99.90
14192;DHT22;7177;48.572;7.838;2022-08-25T01:50:17;19.60;99.90
14192;DHT22;7177;48.572;7.838;2022-08-25T01:53:11;19.60;99.90
14192;DHT22;7177;48.572;7.838;2022-08-25T01:55:39;19.50;99.90
14192;DHT22;7177;48.572;7.838;2022-08-25T01:58:19;19.50;99.90
14192;DHT22;7177;48.572;7.838;2022-08-25T02:00:47;19.50;99.90
14192;DHT22;7177;48.572;7.838;2022-08-25T02:03:13;19.40;99.90
14192;DHT22;7177;48.572;7.838;2022-08-25T02:05:39;19.30;99.90
14192;DHT22;7177;48.572;7.838;2022-08-25T02:08:05;19.30;99.90
14192;DHT22;7177;48.572;7.838;2022-08-25T02:10:31;19.30;99.90
14192;DHT22;7177;48.572;7.838;2022-08-25T02:12:57;19.30;99.90
14192;DHT22;7177;48.572;7.838;2022-08-25T02:15:23;19.30;99.90
14192;DHT22;7177;48.572;7.838;2022-08-25T02:17:49;19.40;99.90
14192;DHT22;7177;48.572;7.838;2022-08-25T02:20:14;19.40;99.90
14192;DHT22;7177;48.572;7.838;2022-08-25T02:22:39;19.30;99.90
14192;DHT22;7177;48.572;7.838;2022-08-25T02:25:05;19.20;99.90
14192;DHT22;7177;48.572;7.838;2022-08-25T02:27:31;19.10;99.90
14192;DHT22;7177;48.572;7.838;2022-08-25T02:29:57;19.00;99.90
14192;DHT22;7177;48.572;7.838;2022-08-25T02:32:22;19.00;99.90
14192;DHT22;7177;48.572;7.838;2022-08-25T02:34:48;19.00;99.90
14192;DHT22;7177;48.572;7.838;2022-08-25T02:37:13;18.90;99.90
14192;DHT22;7177;48.572;7.838;2022-08-25T02:39:39;18.80;99.90
14192;DHT22;7177;48.572;7.838;2022-08-25T02:42:05;18.70;99.90
14192;DHT22;7177;48.572;7.838;2022-08-25T02:44:30;18.80;99.90
14192;DHT22;7177;48.572;7.838;2022-08-25T02:46:56;18.80;99.90
14192;DHT22;7177;48.572;7.838;2022-08-25T02:49:22;18.80;99.90
14192;DHT22;7177;48.572;7.838;2022-08-25T02:51:48;18.80;99.90
14192;DHT22;7177;48.572;7.838;2022-08-25T02:54:13;18.70;99.90
14192;DHT22;7177;48.572;7.838;2022-08-25T02:56:40;18.80;99.90
14192;DHT22;7177;48.572;7.838;2022-08-25T02:59:07;18.80;99.90
14192;DHT22;7177;48.572;7.838;2022-08-25T03:01:32;18.80;99.90
14192;DHT22;7177;48.572;7.838;2022-08-25T03:03:58;18.80;99.90
14192;DHT22;7177;48.572;7.838;2022-08-25T03:06:24;18.90;99.90
14192;DHT22;7177;48.572;7.838;2022-08-25T03:08:51;18.80;99.90
14192;DHT22;7177;48.572;7.838;2022-08-25T03:11:18;18.80;99.90
14192;DHT22;7177;48.572;7.838;2022-08-25T03:13:44;18.80;99.90
14192;DHT22;7177;48.572;7.838;2022-08-25T03:16:10;18.80;99.90
14192;DHT22;7177;48.572;7.838;2022-08-25T03:18:36;18.60;99.90
14192;DHT22;7177;48.572;7.838;2022-08-25T03:21:01;18.40;99.90
14192;DHT22;7177;48.572;7.838;2022-08-25T03:23:27;18.30;99.90
14192;DHT22;7177;48.572;7.838;2022-08-25T03:25:54;18.30;99.90
14192;DHT22;7177;48.572;7.838;2022-08-25T03:28:39;18.30;99.90
14192;DHT22;7177;48.572;7.838;2022-08-25T03:31:06;18.30;99.90
14192;DHT22;7177;48.572;7.838;2022-08-25T03:33:32;18.40;99.90
14192;DHT22;7177;48.572;7.838;2022-08-25T03:35:58;18.50;99.90
14192;DHT22;7177;48.572;7.838;2022-08-25T03:38:24;18.50;99.90
14192;DHT22;7177;48.572;7.838;2022-08-25T03:40:50;18.50;99.90
14192;DHT22;7177;48.572;7.838;2022-08-25T03:43:17;18.50;99.90
14192;DHT22;7177;48.572;7.838;2022-08-25T03:45:43;18.50;99.90
14192;DHT22;7177;48.572;7.838;2022-08-25T03:48:09;18.40;99.90
14192;DHT22;7177;48.572;7.838;2022-08-25T03:50:36;18.40;99.90
14192;DHT22;7177;48.572;7.838;2022-08-25T03:53:02;18.40;99.90
14192;DHT22;7177;48.572;7.838;2022-08-25T03:55:28;18.50;99.90
14192;DHT22;7177;48.572;7.838;2022-08-25T03:57:54;18.50;99.90
14192;DHT22;7177;48.572;7.838;2022-08-25T04:00:21;18.30;99.90
14192;DHT22;7177;48.572;7.838;2022-08-25T04:02:47;18.20;99.90
14192;DHT22;7177;48.572;7.838;2022-08-25T04:05:13;17.90;99.90
14192;DHT22;7177;48.572;7.838;2022-08-25T04:07:39;17.70;99.90
14192;DHT22;7177;48.572;7.838;2022-08-25T04:10:07;17.50;99.90
14192;DHT22;7177;48.572;7.838;2022-08-25T04:12:35;17.50;99.90
14192;DHT22;7177;48.572;7.838;2022-08-25T04:15:02;17.40;99.90
14192;DHT22;7177;48.572;7.838;2022-08-25T04:17:28;17.40;99.90
14192;DHT22;7177;48.572;7.838;2022-08-25T04:19:53;17.40;99.90
14192;DHT22;7177;48.572;7.838;2022-08-25T04:22:19;17.30;99.90
14192;DHT22;7177;48.572;7.838;2022-08-25T04:24:44;17.20;99.90
14192;DHT22;7177;48.572;7.838;2022-08-25T04:27:10;17.20;99.90
14192;DHT22;7177;48.572;7.838;2022-08-25T04:29:36;17.20;99.90
14192;DHT22;7177;48.572;7.838;2022-08-25T04:32:01;17.20;99.90
14192;DHT22;7177;48.572;7.838;2022-08-25T04:34:27;17.30;99.90
14192;DHT22;7177;48.572;7.838;2022-08-25T04:36:52;17.30;99.90
14192;DHT22;7177;48.572;7.838;2022-08-25T04:39:19;17.20;99.90
14192;DHT22;7177;48.572;7.838;2022-08-25T04:41:46;17.20;99.90
14192;DHT22;7177;48.572;7.838;2022-08-25T04:44:12;17.10;99.90
14192;DHT22;7177;48.572;7.838;2022-08-25T04:46:38;17.10;99.90
14192;DHT22;7177;48.572;7.838;2022-08-25T04:49:04;17.20;99.90
14192;DHT22;7177;48.572;7.838;2022-08-25T04:51:39;17.10;99.90
14192;DHT22;7177;48.572;7.838;2022-08-25T04:54:07;17.10;99.90
14192;DHT22;7177;48.572;7.838;2022-08-25T04:56:33;17.20;99.90
14192;DHT22;7177;48.572;7.838;2022-08-25T04:59:05;17.40;99.90
14192;DHT22;7177;48.572;7.838;2022-08-25T05:01:32;17.70;99.90
14192;DHT22;7177;48.572;7.838;2022-08-25T05:04:00;18.40;99.90
14192;DHT22;7177;48.572;7.838;2022-08-25T05:06:26;19.00;99.90
14192;DHT22;7177;48.572;7.838;2022-08-25T05:08:53;19.50;99.90
14192;DHT22;7177;48.572;7.838;2022-08-25T05:11:19;19.80;99.90
14192;DHT22;7177;48.572;7.838;2022-08-25T05:13:47;20.10;99.90
14192;DHT22;7177;48.572;7.838;2022-08-25T05:16:13;20.30;99.90
14192;DHT22;7177;48.572;7.838;2022-08-25T05:18:39;20.40;99.90
14192;DHT22;7177;48.572;7.838;2022-08-25T05:21:08;20.60;99.90
14192;DHT22;7177;48.572;7.838;2022-08-25T05:23:34;20.70;99.90
14192;DHT22;7177;48.572;7.838;2022-08-25T05:28:28;20.90;99.90
14192;DHT22;7177;48.572;7.838;2022-08-25T05:30:57;21.00;99.90
14192;DHT22;7177;48.572;7.838;2022-08-25T05:33:23;21.10;99.90
14192;DHT22;7177;48.572;7.838;2022-08-25T05:35:49;21.20;99.90
14192;DHT22;7177;48.572;7.838;2022-08-25T05:38:14;21.40;99.90
14192;DHT22;7177;48.572;7.838;2022-08-25T05:40:40;21.50;99.90
14192;DHT22;7177;48.572;7.838;2022-08-25T05:43:05;21.70;99.90
14192;DHT22;7177;48.572;7.838;2022-08-25T05:45:31;21.80;99.90
14192;DHT22;7177;48.572;7.838;2022-08-25T05:47:56;21.90;99.90
14192;DHT22;7177;48.572;7.838;2022-08-25T05:50:22;22.00;99.90
14192;DHT22;7177;48.572;7.838;2022-08-25T05:52:48;22.20;99.90
14192;DHT22;7177;48.572;7.838;2022-08-25T05:55:13;22.20;99.90
14192;DHT22;7177;48.572;7.838;2022-08-25T05:57:40;22.20;99.90
14192;DHT22;7177;48.572;7.838;2022-08-25T06:00:07;22.20;99.90
14192;DHT22;7177;48.572;7.838;2022-08-25T06:02:33;22.30;99.90
14192;DHT22;7177;48.572;7.838;2022-08-25T06:05:14;22.50;99.90
14192;DHT22;7177;48.572;7.838;2022-08-25T06:07:41;22.60;99.90
14192;DHT22;7177;48.572;7.838;2022-08-25T06:10:07;22.80;99.90
14192;DHT22;7177;48.572;7.838;2022-08-25T06:12:36;22.90;99.90
14192;DHT22;7177;48.572;7.838;2022-08-25T06:15:02;22.90;99.90
14192;DHT22;7177;48.572;7.838;2022-08-25T06:17:28;23.10;99.90
14192;DHT22;7177;48.572;7.838;2022-08-25T06:19:53;23.20;99.90
14192;DHT22;7177;48.572;7.838;2022-08-25T06:22:20;23.30;99.90
14192;DHT22;7177;48.572;7.838;2022-08-25T06:24:46;23.50;99.90
14192;DHT22;7177;48.572;7.838;2022-08-25T06:27:11;23.70;99.90
14192;DHT22;7177;48.572;7.838;2022-08-25T06:29:37;23.90;99.90
14192;DHT22;7177;48.572;7.838;2022-08-25T06:32:02;23.80;99.90
14192;DHT22;7177;48.572;7.838;2022-08-25T06:34:28;23.90;99.90
14192;DHT22;7177;48.572;7.838;2022-08-25T06:36:54;24.00;99.90
14192;DHT22;7177;48.572;7.838;2022-08-25T06:39:20;24.00;99.90
14192;DHT22;7177;48.572;7.838;2022-08-25T06:41:50;24.20;99.90
14192;DHT22;7177;48.572;7.838;2022-08-25T06:44:16;24.40;99.90
14192;DHT22;7177;48.572;7.838;2022-08-25T06:46:41;24.60;99.90
14192;DHT22;7177;48.572;7.838;2022-08-25T06:49:07;24.80;99.90
14192;DHT22;7177;48.572;7.838;2022-08-25T06:51:33;24.90;99.90
14192;DHT22;7177;48.572;7.838;2022-08-25T06:54:03;25.00;99.90
14192;DHT22;7177;48.572;7.838;2022-08-25T06:56:28;25.20;99.90
14192;DHT22;7177;48.572;7.838;2022-08-25T06:58:54;25.30;99.90
14192;DHT22;7177;48.572;7.838;2022-08-25T07:01:23;25.50;99.90
14192;DHT22;7177;48.572;7.838;2022-08-25T07:03:53;25.60;99.90
14192;DHT22;7177;48.572;7.838;2022-08-25T07:06:19;25.70;99.90
14192;DHT22;7177;48.572;7.838;2022-08-25T07:08:46;25.80;99.90
14192;DHT22;7177;48.572;7.838;2022-08-25T07:11:13;26.00;99.90
14192;DHT22;7177;48.572;7.838;2022-08-25T07:13:42;26.10;99.90
14192;DHT22;7177;48.572;7.838;2022-08-25T07:16:08;26.20;99.90
14192;DHT22;7177;48.572;7.838;2022-08-25T07:18:35;26.40;99.90
14192;DHT22;7177;48.572;7.838;2022-08-25T07:21:01;26.50;99.90
14192;DHT22;7177;48.572;7.838;2022-08-25T07:23:27;26.60;99.90
14192;DHT22;7177;48.572;7.838;2022-08-25T07:25:53;26.90;99.90
14192;DHT22;7177;48.572;7.838;2022-08-25T07:28:21;27.00;99.90
14192;DHT22;7177;48.572;7.838;2022-08-25T07:30:46;27.10;99.90
14192;DHT22;7177;48.572;7.838;2022-08-25T07:33:12;27.30;99.90
14192;DHT22;7177;48.572;7.838;2022-08-25T07:35:37;27.50;99.90
14192;DHT22;7177;48.572;7.838;2022-08-25T07:38:05;27.60;99.90
14192;DHT22;7177;48.572;7.838;2022-08-25T07:40:34;27.90;99.90
14192;DHT22;7177;48.572;7.838;2022-08-25T07:43:03;27.80;99.90
14192;DHT22;7177;48.572;7.838;2022-08-25T07:45:31;28.00;99.90
14192;DHT22;7177;48.572;7.838;2022-08-25T07:48:05;28.30;99.90
14192;DHT22;7177;48.572;7.838;2022-08-25T07:50:33;28.40;99.90
14192;DHT22;7177;48.572;7.838;2022-08-25T07:52:59;28.50;99.90
14192;DHT22;7177;48.572;7.838;2022-08-25T07:55:27;28.70;99.90
14192;DHT22;7177;48.572;7.838;2022-08-25T07:57:55;28.90;99.90
14192;DHT22;7177;48.572;7.838;2022-08-25T08:00:22;29.00;99.90
14192;DHT22;7177;48.572;7.838;2022-08-25T08:02:47;28.90;99.90
14192;DHT22;7177;48.572;7.838;2022-08-25T08:05:14;29.00;99.90
14192;DHT22;7177;48.572;7.838;2022-08-25T08:07:40;29.20;99.90
14192;DHT22;7177;48.572;7.838;2022-08-25T08:10:07;29.50;99.90
14192;DHT22;7177;48.572;7.838;2022-08-25T08:12:33;29.70;99.90
14192;DHT22;7177;48.572;7.838;2022-08-25T08:14:59;29.70;99.90
14192;DHT22;7177;48.572;7.838;2022-08-25T08:17:25;29.80;99.90
14192;DHT22;7177;48.572;7.838;2022-08-25T08:19:50;29.90;99.90
14192;DHT22;7177;48.572;7.838;2022-08-25T08:22:16;30.20;99.90
14192;DHT22;7177;48.572;7.838;2022-08-25T08:24:43;30.50;99.60
14192;DHT22;7177;48.572;7.838;2022-08-25T08:27:11;30.50;99.90
14192;DHT22;7177;48.572;7.838;2022-08-25T08:29:38;30.60;99.60
14192;DHT22;7177;48.572;7.838;2022-08-25T08:32:06;30.80;98.30
14192;DHT22;7177;48.572;7.838;2022-08-25T08:34:32;31.00;97.80
14192;DHT22;7177;48.572;7.838;2022-08-25T08:36:58;31.20;97.50
14192;DHT22;7177;48.572;7.838;2022-08-25T08:39:24;31.60;97.20
14192;DHT22;7177;48.572;7.838;2022-08-25T08:42:32;31.50;96.70
14192;DHT22;7177;48.572;7.838;2022-08-25T08:50:45;31.60;94.70
14192;DHT22;7177;48.572;7.838;2022-08-25T08:56:18;32.00;94.80
14192;DHT22;7177;48.572;7.838;2022-08-25T08:58:48;32.10;92.90
14192;DHT22;7177;48.572;7.838;2022-08-25T09:01:18;32.20;92.80
14192;DHT22;7177;48.572;7.838;2022-08-25T09:04:08;32.20;92.60
14192;DHT22;7177;48.572;7.838;2022-08-25T09:06:43;32.50;91.30
14192;DHT22;7177;48.572;7.838;2022-08-25T09:09:11;32.50;91.20
14192;DHT22;7177;48.572;7.838;2022-08-25T09:11:45;32.60;90.70
14192;DHT22;7177;48.572;7.838;2022-08-25T09:25:19;33.80;83.40
14192;DHT22;7177;48.572;7.838;2022-08-25T09:27:53;34.00;82.90
14192;DHT22;7177;48.572;7.838;2022-08-25T09:30:23;34.00;82.80
14192;DHT22;7177;48.572;7.838;2022-08-25T09:32:53;34.20;80.60
14192;DHT22;7177;48.572;7.838;2022-08-25T09:35:28;34.40;81.20
14192;DHT22;7177;48.572;7.838;2022-08-25T09:38:15;34.70;79.30
14192;DHT22;7177;48.572;7.838;2022-08-25T09:40:46;34.80;77.80
14192;DHT22;7177;48.572;7.838;2022-08-25T09:48:52;34.60;77.30
14192;DHT22;7177;48.572;7.838;2022-08-25T09:51:24;34.50;77.30
14192;DHT22;7177;48.572;7.838;2022-08-25T09:53:54;34.70;76.30
14192;DHT22;7177;48.572;7.838;2022-08-25T09:56:25;34.80;74.90
14192;DHT22;7177;48.572;7.838;2022-08-25T09:58:52;35.10;73.70
14192;DHT22;7177;48.572;7.838;2022-08-25T10:01:21;35.00;73.80
14192;DHT22;7177;48.572;7.838;2022-08-25T10:03:55;34.90;73.80
14192;DHT22;7177;48.572;7.838;2022-08-25T10:06:22;35.30;75.40
14192;DHT22;7177;48.572;7.838;2022-08-25T10:14:17;36.00;70.40
14192;DHT22;7177;48.572;7.838;2022-08-25T10:16:43;35.80;70.50
14192;DHT22;7177;48.572;7.838;2022-08-25T10:22:05;35.60;72.10
14192;DHT22;7177;48.572;7.838;2022-08-25T10:24:32;35.90;70.20
14192;DHT22;7177;48.572;7.838;2022-08-25T10:33:00;36.40;67.50
14192;DHT22;7177;48.572;7.838;2022-08-25T10:36:21;36.60;67.70
14192;DHT22;7177;48.572;7.838;2022-08-25T10:38:59;36.90;66.20
14192;DHT22;7177;48.572;7.838;2022-08-25T10:41:32;37.10;65.00
14192;DHT22;7177;48.572;7.838;2022-08-25T10:50:09;36.60;65.40
14192;DHT22;7177;48.572;7.838;2022-08-25T10:52:50;36.80;65.10
14192;DHT22;7177;48.572;7.838;2022-08-25T10:55:29;36.10;62.70
14192;DHT22;7177;48.572;7.838;2022-08-25T10:58:07;35.70;66.20
14192;DHT22;7177;48.572;7.838;2022-08-25T11:00:44;36.20;65.20
14192;DHT22;7177;48.572;7.838;2022-08-25T11:03:27;36.60;64.20
14192;DHT22;7177;48.572;7.838;2022-08-25T11:06:01;36.70;63.30
14192;DHT22;7177;48.572;7.838;2022-08-25T11:11:08;37.10;62.60
14192;DHT22;7177;48.572;7.838;2022-08-25T11:14:08;37.40;62.30
14192;DHT22;7177;48.572;7.838;2022-08-25T11:16:47;37.80;59.90
14192;DHT22;7177;48.572;7.838;2022-08-25T11:19:25;37.50;60.40
14192;DHT22;7177;48.572;7.838;2022-08-25T11:22:06;37.40;59.80
14192;DHT22;7177;48.572;7.838;2022-08-25T11:25:08;37.60;60.70
14192;DHT22;7177;48.572;7.838;2022-08-25T11:27:48;37.80;60.30
14192;DHT22;7177;48.572;7.838;2022-08-25T11:30:17;38.10;59.90
14192;DHT22;7177;48.572;7.838;2022-08-25T11:32:47;38.30;59.20
14192;DHT22;7177;48.572;7.838;2022-08-25T11:35:15;38.20;58.70
14192;DHT22;7177;48.572;7.838;2022-08-25T11:48:55;38.20;57.80
14192;DHT22;7177;48.572;7.838;2022-08-25T11:56:59;38.40;57.50
14192;DHT22;7177;48.572;7.838;2022-08-25T12:10:18;39.40;55.30
14192;DHT22;7177;48.572;7.838;2022-08-25T12:23:43;38.50;54.60
14192;DHT22;7177;48.572;7.838;2022-08-25T12:33:02;38.50;54.30
14192;DHT22;7177;48.572;7.838;2022-08-25T12:38:10;39.00;54.30
14192;DHT22;7177;48.572;7.838;2022-08-25T12:43:33;39.80;53.90
14192;DHT22;7177;48.572;7.838;2022-08-25T12:59:53;39.50;52.30
14192;DHT22;7177;48.572;7.838;2022-08-25T13:02:56;39.60;52.90
14192;DHT22;7177;48.572;7.838;2022-08-25T13:05:54;39.80;53.00
14192;DHT22;7177;48.572;7.838;2022-08-25T13:08:36;40.00;51.00
14192;DHT22;7177;48.572;7.838;2022-08-25T13:11:06;40.30;51.50
14192;DHT22;7177;48.572;7.838;2022-08-25T13:16:25;40.10;51.10
14192;DHT22;7177;48.572;7.838;2022-08-25T13:18:52;39.80;50.80
14192;DHT22;7177;48.572;7.838;2022-08-25T13:21:32;39.70;51.70
14192;DHT22;7177;48.572;7.838;2022-08-25T13:23:59;40.00;49.60
14192;DHT22;7177;48.572;7.838;2022-08-25T13:26:29;39.40;49.70
14192;DHT22;7177;48.572;7.838;2022-08-25T13:29:02;38.80;50.80
14192;DHT22;7177;48.572;7.838;2022-08-25T13:31:37;38.90;51.30
14192;DHT22;7177;48.572;7.838;2022-08-25T13:34:06;39.00;52.10
14192;DHT22;7177;48.572;7.838;2022-08-25T13:36:43;39.20;51.60
14192;DHT22;7177;48.572;7.838;2022-08-25T13:39:28;39.50;50.20
14192;DHT22;7177;48.572;7.838;2022-08-25T13:41:56;39.60;51.20
14192;DHT22;7177;48.572;7.838;2022-08-25T13:44:27;39.80;51.00
14192;DHT22;7177;48.572;7.838;2022-08-25T13:47:13;40.00;50.70
14192;DHT22;7177;48.572;7.838;2022-08-25T13:49:42;40.00;49.50
14192;DHT22;7177;48.572;7.838;2022-08-25T13:52:24;39.90;50.50
14192;DHT22;7177;48.572;7.838;2022-08-25T13:54:51;40.00;49.90
14192;DHT22;7177;48.572;7.838;2022-08-25T13:57:27;40.20;49.40
14192;DHT22;7177;48.572;7.838;2022-08-25T13:59:59;40.20;48.60
14192;DHT22;7177;48.572;7.838;2022-08-25T14:02:43;40.10;49.20
14192;DHT22;7177;48.572;7.838;2022-08-25T14:05:10;40.20;49.00
14192;DHT22;7177;48.572;7.838;2022-08-25T14:07:36;40.20;48.70
14192;DHT22;7177;48.572;7.838;2022-08-25T14:10:09;39.90;49.10
14192;DHT22;7177;48.572;7.838;2022-08-25T14:12:40;39.80;49.30
14192;DHT22;7177;48.572;7.838;2022-08-25T14:17:43;39.30;49.40
14192;DHT22;7177;48.572;7.838;2022-08-25T14:20:36;39.50;48.70
14192;DHT22;7177;48.572;7.838;2022-08-25T14:23:10;38.60;49.50
14192;DHT22;7177;48.572;7.838;2022-08-25T14:25:39;38.70;49.10
14192;DHT22;7177;48.572;7.838;2022-08-25T14:28:08;38.80;49.50
14192;DHT22;7177;48.572;7.838;2022-08-25T14:30:38;38.90;49.60
14192;DHT22;7177;48.572;7.838;2022-08-25T14:33:04;38.90;48.70
14192;DHT22;7177;48.572;7.838;2022-08-25T14:35:30;38.50;47.70
14192;DHT22;7177;48.572;7.838;2022-08-25T14:37:55;38.00;48.80
14192;DHT22;7177;48.572;7.838;2022-08-25T14:40:21;38.10;47.70
14192;DHT22;7177;48.572;7.838;2022-08-25T14:42:48;38.50;49.40
14192;DHT22;7177;48.572;7.838;2022-08-25T14:45:15;38.70;47.30
14192;DHT22;7177;48.572;7.838;2022-08-25T14:47:41;39.00;47.50
14192;DHT22;7177;48.572;7.838;2022-08-25T14:50:09;38.90;48.10
14192;DHT22;7177;48.572;7.838;2022-08-25T14:52:35;39.20;47.00
14192;DHT22;7177;48.572;7.838;2022-08-25T14:55:01;39.10;46.60
14192;DHT22;7177;48.572;7.838;2022-08-25T14:57:27;38.90;47.50
14192;DHT22;7177;48.572;7.838;2022-08-25T14:59:53;39.10;48.00
14192;DHT22;7177;48.572;7.838;2022-08-25T15:02:21;39.30;47.10
14192;DHT22;7177;48.572;7.838;2022-08-25T15:04:53;39.60;47.20
14192;DHT22;7177;48.572;7.838;2022-08-25T15:07:20;39.80;45.30
14192;DHT22;7177;48.572;7.838;2022-08-25T15:10:05;39.60;46.00
14192;DHT22;7177;48.572;7.838;2022-08-25T15:12:32;39.70;45.20
14192;DHT22;7177;48.572;7.838;2022-08-25T15:14:57;39.40;46.10
14192;DHT22;7177;48.572;7.838;2022-08-25T15:17:23;39.00;46.40
14192;DHT22;7177;48.572;7.838;2022-08-25T15:19:48;39.10;47.50
14192;DHT22;7177;48.572;7.838;2022-08-25T15:22:14;39.10;48.50
14192;DHT22;7177;48.572;7.838;2022-08-25T15:24:39;38.90;47.20
14192;DHT22;7177;48.572;7.838;2022-08-25T15:27:06;38.90;47.40
14192;DHT22;7177;48.572;7.838;2022-08-25T15:29:33;38.90;48.40
14192;DHT22;7177;48.572;7.838;2022-08-25T15:32:04;39.00;46.90
14192;DHT22;7177;48.572;7.838;2022-08-25T15:34:31;38.90;49.80
14192;DHT22;7177;48.572;7.838;2022-08-25T15:36:57;38.70;48.60
14192;DHT22;7177;48.572;7.838;2022-08-25T15:39:24;38.50;48.00
14192;DHT22;7177;48.572;7.838;2022-08-25T15:41:49;38.40;47.20
14192;DHT22;7177;48.572;7.838;2022-08-25T15:44:18;38.20;47.30
14192;DHT22;7177;48.572;7.838;2022-08-25T15:46:44;38.10;47.40
14192;DHT22;7177;48.572;7.838;2022-08-25T15:49:10;38.20;47.60
14192;DHT22;7177;48.572;7.838;2022-08-25T15:51:36;38.20;48.40
14192;DHT22;7177;48.572;7.838;2022-08-25T15:54:02;38.10;48.10
14192;DHT22;7177;48.572;7.838;2022-08-25T15:56:29;38.00;48.40
14192;DHT22;7177;48.572;7.838;2022-08-25T15:58:55;37.80;49.20
14192;DHT22;7177;48.572;7.838;2022-08-25T16:01:24;37.70;48.70
14192;DHT22;7177;48.572;7.838;2022-08-25T16:03:51;37.60;49.50
14192;DHT22;7177;48.572;7.838;2022-08-25T16:06:17;37.40;49.50
14192;DHT22;7177;48.572;7.838;2022-08-25T16:08:43;37.40;49.00
14192;DHT22;7177;48.572;7.838;2022-08-25T16:11:20;37.30;49.40
14192;DHT22;7177;48.572;7.838;2022-08-25T16:13:47;37.40;49.00
14192;DHT22;7177;48.572;7.838;2022-08-25T16:16:13;37.10;48.40
14192;DHT22;7177;48.572;7.838;2022-08-25T16:18:39;37.10;48.90
14192;DHT22;7177;48.572;7.838;2022-08-25T16:21:09;37.00;49.80
14192;DHT22;7177;48.572;7.838;2022-08-25T16:23:35;36.90;49.90
14192;DHT22;7177;48.572;7.838;2022-08-25T16:26:03;36.90;50.70
14192;DHT22;7177;48.572;7.838;2022-08-25T16:28:29;36.90;49.90
14192;DHT22;7177;48.572;7.838;2022-08-25T16:30:54;36.60;51.50
14192;DHT22;7177;48.572;7.838;2022-08-25T16:33:20;36.50;51.00
14192;DHT22;7177;48.572;7.838;2022-08-25T16:35:46;36.20;50.70
14192;DHT22;7177;48.572;7.838;2022-08-25T16:38:12;36.10;51.40
14192;DHT22;7177;48.572;7.838;2022-08-25T16:40:39;36.10;51.70
14192;DHT22;7177;48.572;7.838;2022-08-25T16:43:05;36.10;51.90
14192;DHT22;7177;48.572;7.838;2022-08-25T16:45:30;35.90;52.30
14192;DHT22;7177;48.572;7.838;2022-08-25T16:47:56;35.80;52.80
14192;DHT22;7177;48.572;7.838;2022-08-25T16:50:21;35.70;51.70
14192;DHT22;7177;48.572;7.838;2022-08-25T16:52:47;35.50;52.70
14192;DHT22;7177;48.572;7.838;2022-08-25T16:55:39;35.30;52.00
14192;DHT22;7177;48.572;7.838;2022-08-25T16:58:04;35.10;53.30
14192;DHT22;7177;48.572;7.838;2022-08-25T17:00:30;35.00;53.40
14192;DHT22;7177;48.572;7.838;2022-08-25T17:03:00;34.80;53.70
14192;DHT22;7177;48.572;7.838;2022-08-25T17:05:29;34.70;53.60
14192;DHT22;7177;48.572;7.838;2022-08-25T17:07:58;34.60;54.20
14192;DHT22;7177;48.572;7.838;2022-08-25T17:10:42;34.60;54.20
14192;DHT22;7177;48.572;7.838;2022-08-25T17:13:09;34.60;54.80
14192;DHT22;7177;48.572;7.838;2022-08-25T17:15:43;34.40;54.50
14192;DHT22;7177;48.572;7.838;2022-08-25T17:18:09;34.40;55.10
14192;DHT22;7177;48.572;7.838;2022-08-25T17:20:35;34.30;55.10
14192;DHT22;7177;48.572;7.838;2022-08-25T17:23:02;34.20;55.70
14192;DHT22;7177;48.572;7.838;2022-08-25T17:25:28;34.10;55.60
14192;DHT22;7177;48.572;7.838;2022-08-25T17:27:53;33.90;55.30
14192;DHT22;7177;48.572;7.838;2022-08-25T17:30:19;36.00;57.10
14192;DHT22;7177;48.572;7.838;2022-08-25T17:32:44;33.60;55.90
14192;DHT22;7177;48.572;7.838;2022-08-25T17:35:10;33.40;56.70
14192;DHT22;7177;48.572;7.838;2022-08-25T17:37:36;33.10;56.80
14192;DHT22;7177;48.572;7.838;2022-08-25T17:40:04;32.90;57.30
14192;DHT22;7177;48.572;7.838;2022-08-25T17:42:30;32.80;58.00
14192;DHT22;7177;48.572;7.838;2022-08-25T17:44:56;32.50;58.10
14192;DHT22;7177;48.572;7.838;2022-08-25T17:47:21;32.40;58.10
14192;DHT22;7177;48.572;7.838;2022-08-25T17:49:47;32.30;58.40
14192;DHT22;7177;48.572;7.838;2022-08-25T17:52:12;32.10;59.10
14192;DHT22;7177;48.572;7.838;2022-08-25T17:54:38;31.80;59.80
14192;DHT22;7177;48.572;7.838;2022-08-25T17:57:04;31.70;60.10